sensor_id;sensor_type;location;lat;lon;timestamp;temperature;humidity
15262;DHT22;7733;51.554;13.590;2023-03-01T00:01:53;-2.00;99.90
15262;DHT22;7733;51.554;13.590;2023-03-01T00:04:19;-2.10;99.90
15262;DHT22;7733;51.554;13.590;2023-03-01T00:06:45;-2.00;99.90
15262;DHT22;7733;51.554;13.590;2023-03-01T00:09:12;-2.00;99.90
15262;DHT22;7733;51.554;13.590;2023-03-01T00:11:39;-2.00;99.90
15262;DHT22;7733;51.554;13.590;2023-03-01T00:14:05;-2.10;99.90
15262;DHT22;7733;51.554;13.590;2023-03-01T00:16:34;-2.10;99.90
15262;DHT22;7733;51.554;13.590;2023-03-01T00:19:04;-2.10;99.90
15262;DHT22;7733;51.554;13.590;2023-03-01T00:21:31;-2.10;99.90
15262;DHT22;7733;51.554;13.590;2023-03-01T00:23:57;-2.00;99.90
15262;DHT22;7733;51.554;13.590;2023-03-01T00:26:24;-2.10;99.90
15262;DHT22;7733;51.554;13.590;2023-03-01T00:28:51;-2.30;99.90
15262;DHT22;7733;51.554;13.590;2023-03-01T00:31:21;-2.30;99.90
15262;DHT22;7733;51.554;13.590;2023-03-01T00:33:48;-2.20;99.90
15262;DHT22;7733;51.554;13.590;2023-03-01T00:36:17;-2.20;99.90
15262;DHT22;7733;51.554;13.590;2023-03-01T00:38:44;-2.20;99.90
15262;DHT22;7733;51.554;13.590;2023-03-01T00:41:13;-2.20;99.90
15262;DHT22;7733;51.554;13.590;2023-03-01T00:43:41;-2.50;99.90
15262;DHT22;7733;51.554;13.590;2023-03-01T00:46:09;-2.60;99.90
15262;DHT22;7733;51.554;13.590;2023-03-01T00:48:37;-2.70;99.90
15262;DHT22;7733;51.554;13.590;2023-03-01T00:53:42;-2.70;99.90
15262;DHT22;7733;51.554;13.590;2023-03-01T00:56:10;-2.60;99.90
15262;DHT22;7733;51.554;13.590;2023-03-01T00:58:38;-2.60;99.90
15262;DHT22;7733;51.554;13.590;2023-03-01T01:01:13;-2.50;99.90
15262;DHT22;7733;51.554;13.590;2023-03-01T01:03:56;-2.50;99.90
15262;DHT22;7733;51.554;13.590;2023-03-01T01:06:26;-2.60;99.90
15262;DHT22;7733;51.554;13.590;2023-03-01T01:08:54;-2.50;99.90
15262;DHT22;7733;51.554;13.590;2023-03-01T01:11:24;-2.60;99.90
15262;DHT22;7733;51.554;13.590;2023-03-01T01:13:52;-2.70;99.90
15262;DHT22;7733;51.554;13.590;2023-03-01T01:16:19;-2.90;99.90
15262;DHT22;7733;51.554;13.590;2023-03-01T01:18:47;-3.20;99.90
15262;DHT22;7733;51.554;13.590;2023-03-01T01:21:16;-3.20;99.90
15262;DHT22;7733;51.554;13.590;2023-03-01T01:23:44;-3.10;99.90
15262;DHT22;7733;51.554;13.590;2023-03-01T01:26:31;-3.30;99.90
15262;DHT22;7733;51.554;13.590;2023-03-01T01:28:59;-3.20;99.90
15262;DHT22;7733;51.554;13.590;2023-03-01T01:31:26;-3.40;99.90
15262;DHT22;7733;51.554;13.590;2023-03-01T01:33:53;-3.10;99.90
15262;DHT22;7733;51.554;13.590;2023-03-01T01:36:21;-2.90;99.90
15262;DHT22;7733;51.554;13.590;2023-03-01T01:38:47;-2.90;99.90
15262;DHT22;7733;51.554;13.590;2023-03-01T01:41:13;-2.80;99.90
15262;DHT22;7733;51.554;13.590;2023-03-01T01:43:42;-2.90;99.90
15262;DHT22;7733;51.554;13.590;2023-03-01T01:46:31;-2.90;99.90
15262;DHT22;7733;51.554;13.590;2023-03-01T01:51:49;-2.80;99.90
15262;DHT22;7733;51.554;13.590;2023-03-01T01:54:35;-2.80;99.90
15262;DHT22;7733;51.554;13.590;2023-03-01T01:57:07;-2.80;99.90
15262;DHT22;7733;51.554;13.590;2023-03-01T01:59:38;-2.80;99.90
15262;DHT22;7733;51.554;13.590;2023-03-01T02:02:06;-2.80;99.90
15262;DHT22;7733;51.554;13.590;2023-03-01T02:04:33;-2.70;99.90
15262;DHT22;7733;51.554;13.590;2023-03-01T02:07:24;-2.80;99.90
15262;DHT22;7733;51.554;13.590;2023-03-01T02:09:50;-3.00;99.90
15262;DHT22;7733;51.554;13.590;2023-03-01T02:12:21;-3.10;99.90
15262;DHT22;7733;51.554;13.590;2023-03-01T02:14:49;-3.10;99.90
15262;DHT22;7733;51.554;13.590;2023-03-01T02:17:16;-3.00;99.90
15262;DHT22;7733;51.554;13.590;2023-03-01T02:22:40;-3.10;99.90
15262;DHT22;7733;51.554;13.590;2023-03-01T02:28:01;-3.10;99.90
15262;DHT22;7733;51.554;13.590;2023-03-01T02:30:31;-3.10;99.90
15262;DHT22;7733;51.554;13.590;2023-03-01T02:33:00;-3.30;99.90
15262;DHT22;7733;51.554;13.590;2023-03-01T02:35:32;-3.30;99.90
15262;DHT22;7733;51.554;13.590;2023-03-01T02:38:01;-3.30;99.90
15262;DHT22;7733;51.554;13.590;2023-03-01T02:40:29;-3.50;99.90
15262;DHT22;7733;51.554;13.590;2023-03-01T02:42:58;-3.50;99.90
15262;DHT22;7733;51.554;13.590;2023-03-01T02:45:25;-3.60;99.90
15262;DHT22;7733;51.554;13.590;2023-03-01T02:47:56;-3.30;99.90
15262;DHT22;7733;51.554;13.590;2023-03-01T02:53:31;-3.40;99.90
15262;DHT22;7733;51.554;13.590;2023-03-01T02:56:04;-3.40;99.90
15262;DHT22;7733;51.554;13.590;2023-03-01T02:58:30;-3.40;99.90
15262;DHT22;7733;51.554;13.590;2023-03-01T03:00:56;-3.40;99.90
15262;DHT22;7733;51.554;13.590;2023-03-01T03:03:22;-3.30;99.90
15262;DHT22;7733;51.554;13.590;2023-03-01T03:05:48;-3.40;99.90
15262;DHT22;7733;51.554;13.590;2023-03-01T03:08:14;-3.50;99.90
15262;DHT22;7733;51.554;13.590;2023-03-01T03:10:49;-3.50;99.90
15262;DHT22;7733;51.554;13.590;2023-03-01T03:13:15;-3.60;99.90
15262;DHT22;7733;51.554;13.590;2023-03-01T03:15:42;-3.60;99.90
15262;DHT22;7733;51.554;13.590;2023-03-01T03:18:11;-3.50;99.90
15262;DHT22;7733;51.554;13.590;2023-03-01T03:20:40;-3.50;99.90
15262;DHT22;7733;51.554;13.590;2023-03-01T03:23:07;-3.50;99.90
15262;DHT22;7733;51.554;13.590;2023-03-01T03:25:33;-3.50;99.90
15262;DHT22;7733;51.554;13.590;2023-03-01T03:28:03;-3.40;99.90
15262;DHT22;7733;51.554;13.590;2023-03-01T03:30:37;-3.40;99.90
15262;DHT22;7733;51.554;13.590;2023-03-01T03:33:05;-3.50;99.90
15262;DHT22;7733;51.554;13.590;2023-03-01T03:35:41;-3.60;99.90
15262;DHT22;7733;51.554;13.590;2023-03-01T03:38:11;-3.80;99.90
15262;DHT22;7733;51.554;13.590;2023-03-01T03:40:59;-4.10;99.90
15262;DHT22;7733;51.554;13.590;2023-03-01T03:43:28;-3.90;99.90
15262;DHT22;7733;51.554;13.590;2023-03-01T03:45:55;-3.70;99.90
15262;DHT22;7733;51.554;13.590;2023-03-01T03:48:22;-3.70;99.90
15262;DHT22;7733;51.554;13.590;2023-03-01T03:50:50;-3.80;99.90
15262;DHT22;7733;51.554;13.590;2023-03-01T03:53:18;-3.70;99.90
15262;DHT22;7733;51.554;13.590;2023-03-01T03:55:45;-3.80;99.90
15262;DHT22;7733;51.554;13.590;2023-03-01T03:58:15;-3.70;99.90
15262;DHT22;7733;51.554;13.590;2023-03-01T04:00:43;-3.70;99.90
15262;DHT22;7733;51.554;13.590;2023-03-01T04:03:11;-3.70;99.90
15262;DHT22;7733;51.554;13.590;2023-03-01T04:05:39;-3.70;99.90
15262;DHT22;7733;51.554;13.590;2023-03-01T04:08:07;-3.70;99.90
15262;DHT22;7733;51.554;13.590;2023-03-01T04:10:39;-3.70;99.90
15262;DHT22;7733;51.554;13.590;2023-03-01T04:13:10;-3.70;99.90
15262;DHT22;7733;51.554;13.590;2023-03-01T04:15:37;-3.70;99.90
15262;DHT22;7733;51.554;13.590;2023-03-01T04:18:04;-3.70;99.90
15262;DHT22;7733;51.554;13.590;2023-03-01T04:20:33;-3.90;99.90
15262;DHT22;7733;51.554;13.590;2023-03-01T04:23:03;-4.00;99.90
15262;DHT22;7733;51.554;13.590;2023-03-01T04:25:58;-3.90;99.90
15262;DHT22;7733;51.554;13.590;2023-03-01T04:28:39;-3.80;99.90
15262;DHT22;7733;51.554;13.590;2023-03-01T04:31:11;-3.90;99.90
15262;DHT22;7733;51.554;13.590;2023-03-01T04:33:59;-3.80;99.90
15262;DHT22;7733;51.554;13.590;2023-03-01T04:36:27;-3.90;99.90
15262;DHT22;7733;51.554;13.590;2023-03-01T04:38:54;-3.80;99.90
15262;DHT22;7733;51.554;13.590;2023-03-01T04:41:23;-3.90;99.90
15262;DHT22;7733;51.554;13.590;2023-03-01T04:43:50;-3.90;99.90
15262;DHT22;7733;51.554;13.590;2023-03-01T04:46:18;-3.90;99.90
15262;DHT22;7733;51.554;13.590;2023-03-01T04:48:46;-4.00;99.90
15262;DHT22;7733;51.554;13.590;2023-03-01T04:51:14;-3.90;99.90
15262;DHT22;7733;51.554;13.590;2023-03-01T04:53:41;-4.00;99.90
15262;DHT22;7733;51.554;13.590;2023-03-01T04:56:07;-4.00;99.90
15262;DHT22;7733;51.554;13.590;2023-03-01T04:58:33;-4.00;99.90
15262;DHT22;7733;51.554;13.590;2023-03-01T05:00:59;-4.00;99.90
15262;DHT22;7733;51.554;13.590;2023-03-01T05:03:25;-4.00;99.90
15262;DHT22;7733;51.554;13.590;2023-03-01T05:05:53;-4.00;99.90
15262;DHT22;7733;51.554;13.590;2023-03-01T05:08:18;-4.00;99.90
15262;DHT22;7733;51.554;13.590;2023-03-01T05:10:50;-3.90;99.90
15262;DHT22;7733;51.554;13.590;2023-03-01T05:13:19;-3.90;99.90
15262;DHT22;7733;51.554;13.590;2023-03-01T05:15:54;-4.00;99.90
15262;DHT22;7733;51.554;13.590;2023-03-01T05:18:22;-4.00;99.90
15262;DHT22;7733;51.554;13.590;2023-03-01T05:20:55;-4.00;99.90
15262;DHT22;7733;51.554;13.590;2023-03-01T05:23:26;-4.00;99.90
15262;DHT22;7733;51.554;13.590;2023-03-01T05:25:52;-3.90;99.90
15262;DHT22;7733;51.554;13.590;2023-03-01T05:28:19;-3.90;99.90
15262;DHT22;7733;51.554;13.590;2023-03-01T05:30:46;-3.90;99.90
15262;DHT22;7733;51.554;13.590;2023-03-01T05:33:12;-3.80;99.90
15262;DHT22;7733;51.554;13.590;2023-03-01T05:35:42;-3.90;99.90
15262;DHT22;7733;51.554;13.590;2023-03-01T05:38:12;-4.10;99.90
15262;DHT22;7733;51.554;13.590;2023-03-01T05:40:40;-4.00;99.90
15262;DHT22;7733;51.554;13.590;2023-03-01T05:43:07;-4.00;99.90
15262;DHT22;7733;51.554;13.590;2023-03-01T05:45:36;-3.90;99.90
15262;DHT22;7733;51.554;13.590;2023-03-01T05:48:04;-4.00;99.90
15262;DHT22;7733;51.554;13.590;2023-03-01T05:50:36;-4.00;99.90
15262;DHT22;7733;51.554;13.590;2023-03-01T05:55:37;-4.20;99.90
15262;DHT22;7733;51.554;13.590;2023-03-01T05:58:07;-4.40;99.90
15262;DHT22;7733;51.554;13.590;2023-03-01T06:00:36;-4.30;99.90
15262;DHT22;7733;51.554;13.590;2023-03-01T06:03:02;-4.30;99.90
15262;DHT22;7733;51.554;13.590;2023-03-01T06:05:28;-4.40;99.90
15262;DHT22;7733;51.554;13.590;2023-03-01T06:07:55;-4.50;99.90
15262;DHT22;7733;51.554;13.590;2023-03-01T06:10:24;-4.40;99.90
15262;DHT22;7733;51.554;13.590;2023-03-01T06:12:50;-4.30;99.90
15262;DHT22;7733;51.554;13.590;2023-03-01T06:15:16;-4.10;99.90
15262;DHT22;7733;51.554;13.590;2023-03-01T06:17:45;-4.10;99.90
15262;DHT22;7733;51.554;13.590;2023-03-01T06:20:15;-4.00;99.90
15262;DHT22;7733;51.554;13.590;2023-03-01T06:22:46;-4.10;99.90
15262;DHT22;7733;51.554;13.590;2023-03-01T06:25:17;-4.00;99.90
15262;DHT22;7733;51.554;13.590;2023-03-01T06:27:45;-4.00;99.90
15262;DHT22;7733;51.554;13.590;2023-03-01T06:30:14;-4.00;99.90
15262;DHT22;7733;51.554;13.590;2023-03-01T06:32:41;-4.00;99.90
15262;DHT22;7733;51.554;13.590;2023-03-01T06:35:08;-4.10;99.90
15262;DHT22;7733;51.554;13.590;2023-03-01T06:37:37;-4.20;99.90
15262;DHT22;7733;51.554;13.590;2023-03-01T06:40:04;-4.20;99.90
15262;DHT22;7733;51.554;13.590;2023-03-01T06:42:37;-4.40;99.90
15262;DHT22;7733;51.554;13.590;2023-03-01T06:45:06;-4.50;99.90
15262;DHT22;7733;51.554;13.590;2023-03-01T06:47:33;-4.50;99.90
15262;DHT22;7733;51.554;13.590;2023-03-01T06:50:00;-4.30;99.90
15262;DHT22;7733;51.554;13.590;2023-03-01T06:52:27;-4.30;99.90
15262;DHT22;7733;51.554;13.590;2023-03-01T06:54:53;-4.20;99.90
15262;DHT22;7733;51.554;13.590;2023-03-01T06:57:18;-4.00;99.90
15262;DHT22;7733;51.554;13.590;2023-03-01T06:59:44;-3.90;99.90
15262;DHT22;7733;51.554;13.590;2023-03-01T07:02:11;-3.80;99.90
15262;DHT22;7733;51.554;13.590;2023-03-01T07:04:37;-3.70;99.90
15262;DHT22;7733;51.554;13.590;2023-03-01T07:07:03;-3.60;99.90
15262;DHT22;7733;51.554;13.590;2023-03-01T07:09:29;-3.50;99.90
15262;DHT22;7733;51.554;13.590;2023-03-01T07:11:56;-3.40;99.90
15262;DHT22;7733;51.554;13.590;2023-03-01T07:14:23;-3.40;99.90
15262;DHT22;7733;51.554;13.590;2023-03-01T07:16:54;-3.40;99.90
15262;DHT22;7733;51.554;13.590;2023-03-01T07:19:21;-3.30;99.90
15262;DHT22;7733;51.554;13.590;2023-03-01T07:21:48;-3.20;99.90
15262;DHT22;7733;51.554;13.590;2023-03-01T07:24:13;-3.30;99.90
15262;DHT22;7733;51.554;13.590;2023-03-01T07:26:39;-3.30;99.90
15262;DHT22;7733;51.554;13.590;2023-03-01T07:29:06;-3.20;99.90
15262;DHT22;7733;51.554;13.590;2023-03-01T07:31:34;-3.00;99.90
15262;DHT22;7733;51.554;13.590;2023-03-01T07:34:00;-2.90;99.90
15262;DHT22;7733;51.554;13.590;2023-03-01T07:36:26;-2.80;99.90
15262;DHT22;7733;51.554;13.590;2023-03-01T07:38:52;-2.80;99.90
15262;DHT22;7733;51.554;13.590;2023-03-01T07:41:18;-2.70;99.90
15262;DHT22;7733;51.554;13.590;2023-03-01T07:43:44;-2.50;99.90
15262;DHT22;7733;51.554;13.590;2023-03-01T07:46:09;-2.40;99.90
15262;DHT22;7733;51.554;13.590;2023-03-01T07:48:35;-2.20;99.90
15262;DHT22;7733;51.554;13.590;2023-03-01T07:51:02;-2.10;99.90
15262;DHT22;7733;51.554;13.590;2023-03-01T07:53:30;-2.00;99.90
15262;DHT22;7733;51.554;13.590;2023-03-01T07:56:07;-1.90;99.90
15262;DHT22;7733;51.554;13.590;2023-03-01T07:58:35;-1.80;99.90
15262;DHT22;7733;51.554;13.590;2023-03-01T08:01:02;-1.80;99.90
15262;DHT22;7733;51.554;13.590;2023-03-01T08:03:29;-1.70;99.90
15262;DHT22;7733;51.554;13.590;2023-03-01T08:05:55;-1.50;99.90
15262;DHT22;7733;51.554;13.590;2023-03-01T08:08:20;-1.30;99.90
15262;DHT22;7733;51.554;13.590;2023-03-01T08:10:46;-1.30;99.90
15262;DHT22;7733;51.554;13.590;2023-03-01T08:13:12;-1.30;99.90
15262;DHT22;7733;51.554;13.590;2023-03-01T08:15:38;-1.10;99.90
15262;DHT22;7733;51.554;13.590;2023-03-01T08:18:03;-0.90;99.90
15262;DHT22;7733;51.554;13.590;2023-03-01T08:20:29;-0.70;99.90
15262;DHT22;7733;51.554;13.590;2023-03-01T08:22:55;-0.60;99.90
15262;DHT22;7733;51.554;13.590;2023-03-01T08:25:23;-0.50;99.90
15262;DHT22;7733;51.554;13.590;2023-03-01T08:27:48;-0.30;99.90
15262;DHT22;7733;51.554;13.590;2023-03-01T08:30:14;-0.20;99.90
15262;DHT22;7733;51.554;13.590;2023-03-01T08:32:40;0.00;99.90
15262;DHT22;7733;51.554;13.590;2023-03-01T08:35:06;0.30;99.90
15262;DHT22;7733;51.554;13.590;2023-03-01T08:37:32;0.40;99.90
15262;DHT22;7733;51.554;13.590;2023-03-01T08:39:59;0.60;99.90
15262;DHT22;7733;51.554;13.590;2023-03-01T08:42:26;0.80;99.90
15262;DHT22;7733;51.554;13.590;2023-03-01T08:44:51;0.90;99.90
15262;DHT22;7733;51.554;13.590;2023-03-01T08:47:17;1.10;99.90
15262;DHT22;7733;51.554;13.590;2023-03-01T08:49:43;1.20;99.90
15262;DHT22;7733;51.554;13.590;2023-03-01T08:52:09;1.40;99.90
15262;DHT22;7733;51.554;13.590;2023-03-01T08:54:34;1.50;99.90
15262;DHT22;7733;51.554;13.590;2023-03-01T08:57:03;1.70;99.90
15262;DHT22;7733;51.554;13.590;2023-03-01T08:59:29;1.90;99.90
15262;DHT22;7733;51.554;13.590;2023-03-01T09:01:55;2.10;99.90
15262;DHT22;7733;51.554;13.590;2023-03-01T09:04:21;2.20;99.90
15262;DHT22;7733;51.554;13.590;2023-03-01T09:06:47;2.30;99.90
15262;DHT22;7733;51.554;13.590;2023-03-01T09:09:15;2.40;99.90
15262;DHT22;7733;51.554;13.590;2023-03-01T09:11:43;2.50;99.90
15262;DHT22;7733;51.554;13.590;2023-03-01T09:14:12;2.70;99.90
15262;DHT22;7733;51.554;13.590;2023-03-01T09:16:39;2.80;99.90
15262;DHT22;7733;51.554;13.590;2023-03-01T09:19:05;3.00;99.90
15262;DHT22;7733;51.554;13.590;2023-03-01T09:21:31;3.20;99.90
15262;DHT22;7733;51.554;13.590;2023-03-01T09:23:57;3.30;99.90
15262;DHT22;7733;51.554;13.590;2023-03-01T09:26:24;3.50;99.90
15262;DHT22;7733;51.554;13.590;2023-03-01T09:28:53;3.60;99.90
15262;DHT22;7733;51.554;13.590;2023-03-01T09:31:22;3.70;99.90
15262;DHT22;7733;51.554;13.590;2023-03-01T09:33:51;3.90;99.90
15262;DHT22;7733;51.554;13.590;2023-03-01T09:36:21;4.10;99.90
15262;DHT22;7733;51.554;13.590;2023-03-01T09:38:49;4.20;99.90
15262;DHT22;7733;51.554;13.590;2023-03-01T09:43:47;4.30;99.90
15262;DHT22;7733;51.554;13.590;2023-03-01T09:46:23;4.40;99.90
15262;DHT22;7733;51.554;13.590;2023-03-01T09:49:01;4.50;99.90
15262;DHT22;7733;51.554;13.590;2023-03-01T09:51:33;4.60;99.90
15262;DHT22;7733;51.554;13.590;2023-03-01T09:54:05;4.70;99.90
15262;DHT22;7733;51.554;13.590;2023-03-01T10:03:27;5.10;99.90
15262;DHT22;7733;51.554;13.590;2023-03-01T10:06:06;5.00;99.90
15262;DHT22;7733;51.554;13.590;2023-03-01T10:11:37;5.00;99.90
15262;DHT22;7733;51.554;13.590;2023-03-01T10:14:28;5.40;99.90
15262;DHT22;7733;51.554;13.590;2023-03-01T10:19:53;5.40;99.90
15262;DHT22;7733;51.554;13.590;2023-03-01T10:22:28;5.60;99.90
15262;DHT22;7733;51.554;13.590;2023-03-01T10:24:58;5.60;99.90
15262;DHT22;7733;51.554;13.590;2023-03-01T10:27:26;5.60;99.90
15262;DHT22;7733;51.554;13.590;2023-03-01T10:32:50;5.90;99.90
15262;DHT22;7733;51.554;13.590;2023-03-01T10:35:23;6.10;99.50
15262;DHT22;7733;51.554;13.590;2023-03-01T10:38:07;6.00;99.90
15262;DHT22;7733;51.554;13.590;2023-03-01T10:43:52;6.10;98.90
15262;DHT22;7733;51.554;13.590;2023-03-01T10:49:20;6.40;97.60
15262;DHT22;7733;51.554;13.590;2023-03-01T10:51:49;6.50;97.10
15262;DHT22;7733;51.554;13.590;2023-03-01T10:54:20;6.30;95.60
15262;DHT22;7733;51.554;13.590;2023-03-01T10:57:24;6.30;95.90
15262;DHT22;7733;51.554;13.590;2023-03-01T11:00:15;6.60;95.60
15262;DHT22;7733;51.554;13.590;2023-03-01T11:02:47;6.80;95.20
15262;DHT22;7733;51.554;13.590;2023-03-01T11:05:27;6.80;94.50
15262;DHT22;7733;51.554;13.590;2023-03-01T11:08:00;6.80;94.00
15262;DHT22;7733;51.554;13.590;2023-03-01T11:10:36;6.90;93.90
15262;DHT22;7733;51.554;13.590;2023-03-01T11:13:20;7.00;93.50
15262;DHT22;7733;51.554;13.590;2023-03-01T11:16:06;7.00;92.40
15262;DHT22;7733;51.554;13.590;2023-03-01T11:18:35;7.10;91.90
15262;DHT22;7733;51.554;13.590;2023-03-01T11:21:01;7.30;92.00
15262;DHT22;7733;51.554;13.590;2023-03-01T11:23:29;7.30;91.50
15262;DHT22;7733;51.554;13.590;2023-03-01T11:25:59;7.30;91.20
15262;DHT22;7733;51.554;13.590;2023-03-01T11:28:30;7.40;91.40
15262;DHT22;7733;51.554;13.590;2023-03-01T11:31:04;7.40;90.90
15262;DHT22;7733;51.554;13.590;2023-03-01T11:33:57;7.40;90.60
15262;DHT22;7733;51.554;13.590;2023-03-01T11:36:41;7.60;91.10
15262;DHT22;7733;51.554;13.590;2023-03-01T11:39:26;7.80;90.50
15262;DHT22;7733;51.554;13.590;2023-03-01T11:44:48;7.80;88.50
15262;DHT22;7733;51.554;13.590;2023-03-01T11:50:13;8.10;89.90
15262;DHT22;7733;51.554;13.590;2023-03-01T11:56:38;8.10;86.30
15262;DHT22;7733;51.554;13.590;2023-03-01T12:17:15;8.20;80.80
15262;DHT22;7733;51.554;13.590;2023-03-01T12:27:30;8.30;79.90
15262;DHT22;7733;51.554;13.590;2023-03-01T12:32:52;8.50;79.70
15262;DHT22;7733;51.554;13.590;2023-03-01T12:38:41;8.50;77.00
15262;DHT22;7733;51.554;13.590;2023-03-01T12:41:28;8.60;78.20
15262;DHT22;7733;51.554;13.590;2023-03-01T12:49:48;8.40;77.10
15262;DHT22;7733;51.554;13.590;2023-03-01T12:53:21;8.30;75.30
15262;DHT22;7733;51.554;13.590;2023-03-01T12:55:38;8.30;74.70
15262;DHT22;7733;51.554;13.590;2023-03-01T13:01:44;8.40;73.80
15262;DHT22;7733;51.554;13.590;2023-03-01T13:15:38;8.50;72.70
15262;DHT22;7733;51.554;13.590;2023-03-01T13:31:42;8.80;76.40
15262;DHT22;7733;51.554;13.590;2023-03-01T13:34:00;8.70;74.50
15262;DHT22;7733;51.554;13.590;2023-03-01T13:39:32;8.30;73.60
15262;DHT22;7733;51.554;13.590;2023-03-01T13:42:30;8.60;75.20
15262;DHT22;7733;51.554;13.590;2023-03-01T13:45:00;8.80;75.80
15262;DHT22;7733;51.554;13.590;2023-03-01T13:47:26;8.80;77.00
15262;DHT22;7733;51.554;13.590;2023-03-01T13:50:00;8.60;77.70
15262;DHT22;7733;51.554;13.590;2023-03-01T13:52:35;8.70;77.80
15262;DHT22;7733;51.554;13.590;2023-03-01T13:57:39;8.70;77.10
15262;DHT22;7733;51.554;13.590;2023-03-01T14:00:28;8.80;77.20
15262;DHT22;7733;51.554;13.590;2023-03-01T14:05:44;8.70;76.80
15262;DHT22;7733;51.554;13.590;2023-03-01T14:08:46;8.60;74.50
15262;DHT22;7733;51.554;13.590;2023-03-01T14:17:31;8.10;72.30
15262;DHT22;7733;51.554;13.590;2023-03-01T14:20:24;8.10;73.30
15262;DHT22;7733;51.554;13.590;2023-03-01T14:22:55;8.00;74.30
15262;DHT22;7733;51.554;13.590;2023-03-01T14:25:35;8.00;72.70
15262;DHT22;7733;51.554;13.590;2023-03-01T14:28:13;7.80;71.30
15262;DHT22;7733;51.554;13.590;2023-03-01T14:30:45;7.70;72.60
15262;DHT22;7733;51.554;13.590;2023-03-01T14:33:25;7.80;72.70
15262;DHT22;7733;51.554;13.590;2023-03-01T14:36:02;7.70;73.30
15262;DHT22;7733;51.554;13.590;2023-03-01T14:41:21;7.80;73.90
15262;DHT22;7733;51.554;13.590;2023-03-01T14:43:55;7.60;74.60
15262;DHT22;7733;51.554;13.590;2023-03-01T14:46:39;7.70;75.10
15262;DHT22;7733;51.554;13.590;2023-03-01T14:49:19;7.70;76.20
15262;DHT22;7733;51.554;13.590;2023-03-01T14:51:57;7.70;76.70
15262;DHT22;7733;51.554;13.590;2023-03-01T14:54:39;7.70;77.10
15262;DHT22;7733;51.554;13.590;2023-03-01T14:57:25;7.60;76.00
15262;DHT22;7733;51.554;13.590;2023-03-01T14:59:57;7.60;76.80
15262;DHT22;7733;51.554;13.590;2023-03-01T15:02:26;7.50;76.20
15262;DHT22;7733;51.554;13.590;2023-03-01T15:04:57;7.40;77.50
15262;DHT22;7733;51.554;13.590;2023-03-01T15:07:37;7.50;78.20
15262;DHT22;7733;51.554;13.590;2023-03-01T15:10:06;7.40;76.50
15262;DHT22;7733;51.554;13.590;2023-03-01T15:12:41;7.60;77.70
15262;DHT22;7733;51.554;13.590;2023-03-01T15:15:43;7.50;78.40
15262;DHT22;7733;51.554;13.590;2023-03-01T15:18:32;7.40;75.80
15262;DHT22;7733;51.554;13.590;2023-03-01T15:21:37;7.20;74.90
15262;DHT22;7733;51.554;13.590;2023-03-01T15:29:24;7.10;75.00
15262;DHT22;7733;51.554;13.590;2023-03-01T15:32:28;7.10;75.60
15262;DHT22;7733;51.554;13.590;2023-03-01T15:34:55;7.00;75.60
15262;DHT22;7733;51.554;13.590;2023-03-01T15:37:48;7.10;76.00
15262;DHT22;7733;51.554;13.590;2023-03-01T15:42:49;7.10;77.40
15262;DHT22;7733;51.554;13.590;2023-03-01T15:47:47;7.00;77.80
15262;DHT22;7733;51.554;13.590;2023-03-01T15:50:27;7.00;77.60
15262;DHT22;7733;51.554;13.590;2023-03-01T15:52:56;7.00;77.50
15262;DHT22;7733;51.554;13.590;2023-03-01T15:55:27;7.10;77.90
15262;DHT22;7733;51.554;13.590;2023-03-01T15:58:04;7.00;77.90
15262;DHT22;7733;51.554;13.590;2023-03-01T16:00:35;7.00;78.90
15262;DHT22;7733;51.554;13.590;2023-03-01T16:03:01;6.90;78.40
15262;DHT22;7733;51.554;13.590;2023-03-01T16:05:30;6.90;79.20
15262;DHT22;7733;51.554;13.590;2023-03-01T16:07:58;6.90;80.10
15262;DHT22;7733;51.554;13.590;2023-03-01T16:10:24;6.80;79.60
15262;DHT22;7733;51.554;13.590;2023-03-01T16:12:51;6.90;80.20
15262;DHT22;7733;51.554;13.590;2023-03-01T16:15:29;6.80;79.60
15262;DHT22;7733;51.554;13.590;2023-03-01T16:17:57;6.70;79.70
15262;DHT22;7733;51.554;13.590;2023-03-01T16:20:26;6.60;79.90
15262;DHT22;7733;51.554;13.590;2023-03-01T16:22:54;6.60;81.40
15262;DHT22;7733;51.554;13.590;2023-03-01T16:25:21;6.50;80.20
15262;DHT22;7733;51.554;13.590;2023-03-01T16:27:49;6.40;80.70
15262;DHT22;7733;51.554;13.590;2023-03-01T16:30:18;6.40;80.80
15262;DHT22;7733;51.554;13.590;2023-03-01T16:32:47;6.30;80.90
15262;DHT22;7733;51.554;13.590;2023-03-01T16:35:15;6.20;81.10
15262;DHT22;7733;51.554;13.590;2023-03-01T16:37:44;6.20;81.30
15262;DHT22;7733;51.554;13.590;2023-03-01T16:40:18;6.10;81.30
15262;DHT22;7733;51.554;13.590;2023-03-01T16:42:51;6.10;82.10
15262;DHT22;7733;51.554;13.590;2023-03-01T16:45:17;6.00;82.20
15262;DHT22;7733;51.554;13.590;2023-03-01T16:47:44;5.90;82.10
15262;DHT22;7733;51.554;13.590;2023-03-01T16:50:10;5.80;83.10
15262;DHT22;7733;51.554;13.590;2023-03-01T16:52:36;5.60;83.70
15262;DHT22;7733;51.554;13.590;2023-03-01T16:55:04;5.60;84.50
15262;DHT22;7733;51.554;13.590;2023-03-01T16:57:33;5.50;85.20
15262;DHT22;7733;51.554;13.590;2023-03-01T16:59:59;5.50;85.40
15262;DHT22;7733;51.554;13.590;2023-03-01T17:02:25;5.40;85.80
15262;DHT22;7733;51.554;13.590;2023-03-01T17:04:55;5.30;86.90
15262;DHT22;7733;51.554;13.590;2023-03-01T17:07:21;5.30;87.20
15262;DHT22;7733;51.554;13.590;2023-03-01T17:09:47;5.20;87.20
15262;DHT22;7733;51.554;13.590;2023-03-01T17:12:14;5.00;87.70
15262;DHT22;7733;51.554;13.590;2023-03-01T17:14:41;4.80;88.20
15262;DHT22;7733;51.554;13.590;2023-03-01T17:17:08;4.80;88.60
15262;DHT22;7733;51.554;13.590;2023-03-01T17:19:35;4.50;90.40
15262;DHT22;7733;51.554;13.590;2023-03-01T17:22:05;4.40;91.10
15262;DHT22;7733;51.554;13.590;2023-03-01T17:24:33;4.20;91.00
15262;DHT22;7733;51.554;13.590;2023-03-01T17:27:00;4.10;91.30
15262;DHT22;7733;51.554;13.590;2023-03-01T17:29:26;3.90;92.20
15262;DHT22;7733;51.554;13.590;2023-03-01T17:31:52;3.70;92.70
15262;DHT22;7733;51.554;13.590;2023-03-01T17:34:21;3.60;93.50
15262;DHT22;7733;51.554;13.590;2023-03-01T17:36:47;3.50;93.50
15262;DHT22;7733;51.554;13.590;2023-03-01T17:39:15;3.40;93.00
15262;DHT22;7733;51.554;13.590;2023-03-01T17:41:41;3.50;92.20
15262;DHT22;7733;51.554;13.590;2023-03-01T17:44:08;3.60;91.80
15262;DHT22;7733;51.554;13.590;2023-03-01T17:46:33;3.60;92.00
15262;DHT22;7733;51.554;13.590;2023-03-01T17:48:59;3.60;92.00
15262;DHT22;7733;51.554;13.590;2023-03-01T17:51:25;3.50;92.60
15262;DHT22;7733;51.554;13.590;2023-03-01T17:53:51;3.40;93.40
15262;DHT22;7733;51.554;13.590;2023-03-01T17:56:17;3.30;93.70
15262;DHT22;7733;51.554;13.590;2023-03-01T17:58:42;3.20;94.20
15262;DHT22;7733;51.554;13.590;2023-03-01T18:01:17;3.20;94.50
15262;DHT22;7733;51.554;13.590;2023-03-01T18:03:44;3.30;94.50
15262;DHT22;7733;51.554;13.590;2023-03-01T18:08:38;3.10;94.20
15262;DHT22;7733;51.554;13.590;2023-03-01T18:11:04;3.00;94.50
15262;DHT22;7733;51.554;13.590;2023-03-01T18:13:30;2.90;94.60
15262;DHT22;7733;51.554;13.590;2023-03-01T18:15:56;2.90;94.60
15262;DHT22;7733;51.554;13.590;2023-03-01T18:18:26;2.90;94.40
15262;DHT22;7733;51.554;13.590;2023-03-01T18:20:57;2.80;94.70
15262;DHT22;7733;51.554;13.590;2023-03-01T18:23:23;2.70;95.00
15262;DHT22;7733;51.554;13.590;2023-03-01T18:25:49;2.60;95.50